sensor_id;sensor_type;location;lat;lon;timestamp;P1;durP1;ratioP1;P2;durP2;ratioP2
3068;SDS011;1545;51.728;8.796;2023-08-17T00:01:50;19.73;;;12.50;;
3068;SDS011;1545;51.728;8.796;2023-08-17T00:04:16;23.47;;;13.90;;
3068;SDS011;1545;51.728;8.796;2023-08-17T00:06:41;25.83;;;13.77;;
3068;SDS011;1545;51.728;8.796;2023-08-17T00:09:07;27.37;;;13.30;;
3068;SDS011;1545;51.728;8.796;2023-08-17T00:11:33;28.53;;;14.30;;
3068;SDS011;1545;51.728;8.796;2023-08-17T00:13:58;29.93;;;14.37;;
3068;SDS011;1545;51.728;8.796;2023-08-17T00:16:24;27.37;;;14.77;;
3068;SDS011;1545;51.728;8.796;2023-08-17T00:18:50;24.60;;;13.13;;
3068;SDS011;1545;51.728;8.796;2023-08-17T00:21:16;19.93;;;12.87;;
3068;SDS011;1545;51.728;8.796;2023-08-17T00:23:42;21.33;;;12.80;;
3068;SDS011;1545;51.728;8.796;2023-08-17T00:26:08;20.90;;;13.40;;
3068;SDS011;1545;51.728;8.796;2023-08-17T00:28:33;25.03;;;13.47;;
3068;SDS011;1545;51.728;8.796;2023-08-17T00:30:59;31.17;;;13.43;;
3068;SDS011;1545;51.728;8.796;2023-08-17T00:33:25;19.73;;;12.83;;
3068;SDS011;1545;51.728;8.796;2023-08-17T00:35:51;22.00;;;12.90;;
3068;SDS011;1545;51.728;8.796;2023-08-17T00:38:16;25.13;;;13.33;;
3068;SDS011;1545;51.728;8.796;2023-08-17T00:40:42;23.47;;;13.57;;
3068;SDS011;1545;51.728;8.796;2023-08-17T00:43:08;27.27;;;13.80;;
3068;SDS011;1545;51.728;8.796;2023-08-17T00:45:34;30.83;;;13.57;;
3068;SDS011;1545;51.728;8.796;2023-08-17T00:48:00;25.63;;;13.73;;
3068;SDS011;1545;51.728;8.796;2023-08-17T00:50:26;30.03;;;14.53;;
3068;SDS011;1545;51.728;8.796;2023-08-17T00:52:54;24.07;;;14.20;;
3068;SDS011;1545;51.728;8.796;2023-08-17T00:55:21;23.50;;;14.47;;
3068;SDS011;1545;51.728;8.796;2023-08-17T00:57:47;33.40;;;15.10;;
3068;SDS011;1545;51.728;8.796;2023-08-17T01:00:12;33.70;;;15.70;;
3068;SDS011;1545;51.728;8.796;2023-08-17T01:02:41;31.70;;;15.10;;
3068;SDS011;1545;51.728;8.796;2023-08-17T01:05:08;27.63;;;14.80;;
3068;SDS011;1545;51.728;8.796;2023-08-17T01:07:34;26.73;;;16.00;;
3068;SDS011;1545;51.728;8.796;2023-08-17T01:10:00;25.77;;;15.23;;
3068;SDS011;1545;51.728;8.796;2023-08-17T01:12:31;24.40;;;14.37;;
3068;SDS011;1545;51.728;8.796;2023-08-17T01:15:12;28.10;;;14.60;;
3068;SDS011;1545;51.728;8.796;2023-08-17T01:17:52;20.33;;;13.67;;
3068;SDS011;1545;51.728;8.796;2023-08-17T01:20:23;25.37;;;13.63;;
3068;SDS011;1545;51.728;8.796;2023-08-17T01:22:49;26.93;;;14.03;;
3068;SDS011;1545;51.728;8.796;2023-08-17T01:25:16;21.77;;;12.63;;
3068;SDS011;1545;51.728;8.796;2023-08-17T01:27:45;23.53;;;14.23;;
3068;SDS011;1545;51.728;8.796;2023-08-17T01:30:12;27.90;;;14.47;;
3068;SDS011;1545;51.728;8.796;2023-08-17T01:32:48;21.20;;;13.83;;
3068;SDS011;1545;51.728;8.796;2023-08-17T01:35:30;21.40;;;13.90;;
3068;SDS011;1545;51.728;8.796;2023-08-17T01:38:02;22.87;;;12.07;;
3068;SDS011;1545;51.728;8.796;2023-08-17T01:43:24;25.50;;;12.63;;
3068;SDS011;1545;51.728;8.796;2023-08-17T01:45:51;16.67;;;12.30;;
3068;SDS011;1545;51.728;8.796;2023-08-17T01:48:17;22.77;;;12.93;;
3068;SDS011;1545;51.728;8.796;2023-08-17T01:50:42;20.83;;;12.50;;
3068;SDS011;1545;51.728;8.796;2023-08-17T01:53:08;22.40;;;12.60;;
3068;SDS011;1545;51.728;8.796;2023-08-17T01:55:34;18.73;;;12.00;;
3068;SDS011;1545;51.728;8.796;2023-08-17T01:58:00;33.53;;;12.97;;
3068;SDS011;1545;51.728;8.796;2023-08-17T02:00:26;20.20;;;12.50;;
3068;SDS011;1545;51.728;8.796;2023-08-17T02:02:51;22.37;;;12.73;;
3068;SDS011;1545;51.728;8.796;2023-08-17T02:05:17;21.73;;;12.53;;
3068;SDS011;1545;51.728;8.796;2023-08-17T02:07:42;22.63;;;13.43;;
3068;SDS011;1545;51.728;8.796;2023-08-17T02:10:08;29.50;;;13.67;;
3068;SDS011;1545;51.728;8.796;2023-08-17T02:12:34;18.53;;;12.80;;
3068;SDS011;1545;51.728;8.796;2023-08-17T02:14:59;28.57;;;13.10;;
3068;SDS011;1545;51.728;8.796;2023-08-17T02:17:25;21.90;;;12.60;;
3068;SDS011;1545;51.728;8.796;2023-08-17T02:19:50;23.07;;;12.90;;
3068;SDS011;1545;51.728;8.796;2023-08-17T02:22:16;20.87;;;13.20;;
3068;SDS011;1545;51.728;8.796;2023-08-17T02:24:41;19.63;;;12.87;;
3068;SDS011;1545;51.728;8.796;2023-08-17T02:27:08;26.03;;;13.43;;
3068;SDS011;1545;51.728;8.796;2023-08-17T02:29:34;20.30;;;13.17;;
3068;SDS011;1545;51.728;8.796;2023-08-17T02:32:00;27.70;;;13.83;;
3068;SDS011;1545;51.728;8.796;2023-08-17T02:34:25;21.13;;;13.33;;
3068;SDS011;1545;51.728;8.796;2023-08-17T02:36:51;20.83;;;13.60;;
3068;SDS011;1545;51.728;8.796;2023-08-17T02:39:17;24.97;;;13.73;;
3068;SDS011;1545;51.728;8.796;2023-08-17T02:41:42;22.33;;;13.40;;
3068;SDS011;1545;51.728;8.796;2023-08-17T02:44:09;21.10;;;13.33;;
3068;SDS011;1545;51.728;8.796;2023-08-17T02:46:35;23.33;;;14.57;;
3068;SDS011;1545;51.728;8.796;2023-08-17T02:49:01;19.63;;;12.77;;
3068;SDS011;1545;51.728;8.796;2023-08-17T02:51:27;20.93;;;13.47;;
3068;SDS011;1545;51.728;8.796;2023-08-17T02:53:52;21.37;;;12.93;;
3068;SDS011;1545;51.728;8.796;2023-08-17T02:56:18;27.97;;;13.30;;
3068;SDS011;1545;51.728;8.796;2023-08-17T02:58:44;26.27;;;13.20;;
3068;SDS011;1545;51.728;8.796;2023-08-17T03:01:09;22.70;;;13.57;;
3068;SDS011;1545;51.728;8.796;2023-08-17T03:03:35;22.77;;;13.27;;
3068;SDS011;1545;51.728;8.796;2023-08-17T03:06:01;30.90;;;13.10;;
3068;SDS011;1545;51.728;8.796;2023-08-17T03:08:27;28.93;;;13.63;;
3068;SDS011;1545;51.728;8.796;2023-08-17T03:10:53;24.97;;;13.40;;
3068;SDS011;1545;51.728;8.796;2023-08-17T03:13:19;34.87;;;14.10;;
3068;SDS011;1545;51.728;8.796;2023-08-17T03:15:44;24.87;;;12.63;;
3068;SDS011;1545;51.728;8.796;2023-08-17T03:18:10;21.37;;;13.30;;
3068;SDS011;1545;51.728;8.796;2023-08-17T03:20:36;28.40;;;13.23;;
3068;SDS011;1545;51.728;8.796;2023-08-17T03:23:01;18.77;;;12.60;;
3068;SDS011;1545;51.728;8.796;2023-08-17T03:25:27;24.37;;;12.90;;
3068;SDS011;1545;51.728;8.796;2023-08-17T03:27:52;27.30;;;14.40;;
3068;SDS011;1545;51.728;8.796;2023-08-17T03:30:18;24.27;;;12.43;;
3068;SDS011;1545;51.728;8.796;2023-08-17T03:32:43;25.17;;;14.00;;
3068;SDS011;1545;51.728;8.796;2023-08-17T03:35:09;27.23;;;13.47;;
3068;SDS011;1545;51.728;8.796;2023-08-17T03:37:35;34.03;;;13.30;;
3068;SDS011;1545;51.728;8.796;2023-08-17T03:40:00;20.70;;;13.93;;
3068;SDS011;1545;51.728;8.796;2023-08-17T03:42:26;25.10;;;13.40;;
3068;SDS011;1545;51.728;8.796;2023-08-17T03:44:52;25.00;;;13.93;;
3068;SDS011;1545;51.728;8.796;2023-08-17T03:47:18;33.67;;;14.60;;
3068;SDS011;1545;51.728;8.796;2023-08-17T03:49:43;21.47;;;12.70;;
3068;SDS011;1545;51.728;8.796;2023-08-17T03:52:09;27.17;;;13.93;;
3068;SDS011;1545;51.728;8.796;2023-08-17T03:54:35;21.67;;;12.67;;
3068;SDS011;1545;51.728;8.796;2023-08-17T03:57:01;22.37;;;13.60;;
3068;SDS011;1545;51.728;8.796;2023-08-17T03:59:27;25.53;;;13.53;;
3068;SDS011;1545;51.728;8.796;2023-08-17T04:01:53;19.83;;;13.30;;
3068;SDS011;1545;51.728;8.796;2023-08-17T04:04:18;30.87;;;12.90;;
3068;SDS011;1545;51.728;8.796;2023-08-17T04:06:44;26.27;;;12.90;;
3068;SDS011;1545;51.728;8.796;2023-08-17T04:09:09;33.20;;;12.43;;
3068;SDS011;1545;51.728;8.796;2023-08-17T04:11:35;19.20;;;12.23;;
3068;SDS011;1545;51.728;8.796;2023-08-17T04:14:03;19.27;;;12.70;;
3068;SDS011;1545;51.728;8.796;2023-08-17T04:16:29;23.40;;;12.70;;
3068;SDS011;1545;51.728;8.796;2023-08-17T04:18:55;24.60;;;14.03;;
3068;SDS011;1545;51.728;8.796;2023-08-17T04:21:21;19.53;;;12.87;;
3068;SDS011;1545;51.728;8.796;2023-08-17T04:23:46;33.40;;;13.00;;
3068;SDS011;1545;51.728;8.796;2023-08-17T04:26:12;25.93;;;13.90;;
3068;SDS011;1545;51.728;8.796;2023-08-17T04:28:38;29.13;;;13.37;;
3068;SDS011;1545;51.728;8.796;2023-08-17T04:31:03;20.53;;;13.40;;
3068;SDS011;1545;51.728;8.796;2023-08-17T04:33:29;29.27;;;14.37;;
3068;SDS011;1545;51.728;8.796;2023-08-17T04:35:55;30.83;;;13.97;;
3068;SDS011;1545;51.728;8.796;2023-08-17T04:38:20;28.37;;;15.77;;
3068;SDS011;1545;51.728;8.796;2023-08-17T04:40:46;27.33;;;15.37;;
3068;SDS011;1545;51.728;8.796;2023-08-17T04:43:12;28.90;;;16.23;;
3068;SDS011;1545;51.728;8.796;2023-08-17T04:45:37;30.13;;;15.80;;
3068;SDS011;1545;51.728;8.796;2023-08-17T04:48:03;25.13;;;15.10;;
3068;SDS011;1545;51.728;8.796;2023-08-17T04:50:30;29.37;;;15.40;;
3068;SDS011;1545;51.728;8.796;2023-08-17T04:52:56;29.80;;;16.77;;
3068;SDS011;1545;51.728;8.796;2023-08-17T04:55:21;30.93;;;18.07;;
3068;SDS011;1545;51.728;8.796;2023-08-17T04:57:47;33.20;;;18.03;;
3068;SDS011;1545;51.728;8.796;2023-08-17T05:00:13;29.53;;;17.80;;
3068;SDS011;1545;51.728;8.796;2023-08-17T05:02:40;33.53;;;18.87;;
3068;SDS011;1545;51.728;8.796;2023-08-17T05:05:05;35.30;;;19.50;;
3068;SDS011;1545;51.728;8.796;2023-08-17T05:07:32;43.47;;;20.90;;
3068;SDS011;1545;51.728;8.796;2023-08-17T05:09:58;33.47;;;19.70;;
3068;SDS011;1545;51.728;8.796;2023-08-17T05:12:24;36.97;;;19.83;;
3068;SDS011;1545;51.728;8.796;2023-08-17T05:14:50;34.83;;;19.40;;
3068;SDS011;1545;51.728;8.796;2023-08-17T05:17:15;37.07;;;16.20;;
3068;SDS011;1545;51.728;8.796;2023-08-17T05:19:41;32.27;;;16.83;;
3068;SDS011;1545;51.728;8.796;2023-08-17T05:22:10;40.93;;;17.60;;
3068;SDS011;1545;51.728;8.796;2023-08-17T05:24:36;30.03;;;16.83;;
3068;SDS011;1545;51.728;8.796;2023-08-17T05:27:02;28.17;;;17.83;;
3068;SDS011;1545;51.728;8.796;2023-08-17T05:29:27;26.13;;;16.70;;
3068;SDS011;1545;51.728;8.796;2023-08-17T05:31:53;29.20;;;18.17;;
3068;SDS011;1545;51.728;8.796;2023-08-17T05:34:19;28.13;;;17.50;;
3068;SDS011;1545;51.728;8.796;2023-08-17T05:36:44;25.83;;;17.03;;
3068;SDS011;1545;51.728;8.796;2023-08-17T05:39:10;30.27;;;17.03;;
3068;SDS011;1545;51.728;8.796;2023-08-17T05:41:35;26.27;;;16.57;;
3068;SDS011;1545;51.728;8.796;2023-08-17T05:44:01;28.80;;;16.90;;
3068;SDS011;1545;51.728;8.796;2023-08-17T05:46:27;23.77;;;16.23;;
3068;SDS011;1545;51.728;8.796;2023-08-17T05:48:52;26.77;;;16.23;;
3068;SDS011;1545;51.728;8.796;2023-08-17T05:51:18;23.53;;;16.83;;
3068;SDS011;1545;51.728;8.796;2023-08-17T05:53:43;30.83;;;16.93;;
3068;SDS011;1545;51.728;8.796;2023-08-17T05:56:09;29.07;;;16.93;;
3068;SDS011;1545;51.728;8.796;2023-08-17T05:58:34;22.90;;;15.97;;
3068;SDS011;1545;51.728;8.796;2023-08-17T06:01:09;32.23;;;17.70;;
3068;SDS011;1545;51.728;8.796;2023-08-17T06:03:36;33.07;;;17.13;;
3068;SDS011;1545;51.728;8.796;2023-08-17T06:06:02;31.07;;;16.17;;
3068;SDS011;1545;51.728;8.796;2023-08-17T06:08:30;28.07;;;16.23;;
3068;SDS011;1545;51.728;8.796;2023-08-17T06:10:55;36.97;;;19.53;;
3068;SDS011;1545;51.728;8.796;2023-08-17T06:13:21;26.03;;;17.27;;
3068;SDS011;1545;51.728;8.796;2023-08-17T06:15:46;27.00;;;17.23;;
3068;SDS011;1545;51.728;8.796;2023-08-17T06:18:12;29.07;;;17.90;;
3068;SDS011;1545;51.728;8.796;2023-08-17T06:20:38;32.63;;;18.50;;
3068;SDS011;1545;51.728;8.796;2023-08-17T06:23:03;33.90;;;19.33;;
3068;SDS011;1545;51.728;8.796;2023-08-17T06:25:29;32.40;;;19.33;;
3068;SDS011;1545;51.728;8.796;2023-08-17T06:27:54;34.30;;;20.03;;
3068;SDS011;1545;51.728;8.796;2023-08-17T06:30:20;39.67;;;19.90;;
3068;SDS011;1545;51.728;8.796;2023-08-17T06:32:46;34.27;;;18.73;;
3068;SDS011;1545;51.728;8.796;2023-08-17T06:35:11;35.93;;;20.93;;
3068;SDS011;1545;51.728;8.796;2023-08-17T06:37:37;38.00;;;20.50;;
3068;SDS011;1545;51.728;8.796;2023-08-17T06:40:03;39.50;;;21.10;;
3068;SDS011;1545;51.728;8.796;2023-08-17T06:42:30;34.67;;;19.90;;
3068;SDS011;1545;51.728;8.796;2023-08-17T06:44:56;36.93;;;21.50;;
3068;SDS011;1545;51.728;8.796;2023-08-17T06:47:21;36.50;;;21.53;;
3068;SDS011;1545;51.728;8.796;2023-08-17T06:49:47;44.47;;;21.97;;
3068;SDS011;1545;51.728;8.796;2023-08-17T06:52:12;40.50;;;22.07;;
3068;SDS011;1545;51.728;8.796;2023-08-17T06:54:38;39.67;;;22.23;;
3068;SDS011;1545;51.728;8.796;2023-08-17T06:57:04;34.37;;;22.27;;
3068;SDS011;1545;51.728;8.796;2023-08-17T06:59:29;36.10;;;21.20;;
3068;SDS011;1545;51.728;8.796;2023-08-17T07:01:56;34.60;;;19.87;;
3068;SDS011;1545;51.728;8.796;2023-08-17T07:04:22;26.50;;;18.50;;
3068;SDS011;1545;51.728;8.796;2023-08-17T07:06:48;34.20;;;20.73;;
3068;SDS011;1545;51.728;8.796;2023-08-17T07:09:14;33.63;;;18.33;;
3068;SDS011;1545;51.728;8.796;2023-08-17T07:11:40;25.40;;;17.73;;
3068;SDS011;1545;51.728;8.796;2023-08-17T07:14:05;26.07;;;15.73;;
3068;SDS011;1545;51.728;8.796;2023-08-17T07:16:31;26.37;;;16.77;;
3068;SDS011;1545;51.728;8.796;2023-08-17T07:18:57;31.10;;;16.93;;
3068;SDS011;1545;51.728;8.796;2023-08-17T07:21:22;27.27;;;16.03;;
3068;SDS011;1545;51.728;8.796;2023-08-17T07:23:48;25.07;;;14.47;;
3068;SDS011;1545;51.728;8.796;2023-08-17T07:26:15;20.90;;;13.67;;
3068;SDS011;1545;51.728;8.796;2023-08-17T07:28:41;17.07;;;12.60;;
3068;SDS011;1545;51.728;8.796;2023-08-17T07:31:06;18.07;;;12.23;;
3068;SDS011;1545;51.728;8.796;2023-08-17T07:33:32;18.90;;;11.60;;
3068;SDS011;1545;51.728;8.796;2023-08-17T07:35:57;17.80;;;10.90;;
3068;SDS011;1545;51.728;8.796;2023-08-17T07:38:23;19.93;;;10.53;;
3068;SDS011;1545;51.728;8.796;2023-08-17T07:40:49;13.63;;;9.47;;
3068;SDS011;1545;51.728;8.796;2023-08-17T07:43:14;15.50;;;9.40;;
3068;SDS011;1545;51.728;8.796;2023-08-17T07:45:40;14.40;;;9.93;;
3068;SDS011;1545;51.728;8.796;2023-08-17T07:48:05;24.60;;;10.70;;
3068;SDS011;1545;51.728;8.796;2023-08-17T07:50:31;13.47;;;8.30;;
3068;SDS011;1545;51.728;8.796;2023-08-17T07:52:57;24.97;;;9.47;;
3068;SDS011;1545;51.728;8.796;2023-08-17T07:55:22;11.93;;;9.27;;
3068;SDS011;1545;51.728;8.796;2023-08-17T07:57:48;12.93;;;8.73;;
3068;SDS011;1545;51.728;8.796;2023-08-17T08:00:13;10.97;;;8.13;;
3068;SDS011;1545;51.728;8.796;2023-08-17T08:02:39;10.40;;;7.20;;
3068;SDS011;1545;51.728;8.796;2023-08-17T08:05:05;11.80;;;7.53;;
3068;SDS011;1545;51.728;8.796;2023-08-17T08:07:31;8.50;;;6.83;;
3068;SDS011;1545;51.728;8.796;2023-08-17T08:09:57;9.80;;;5.70;;
3068;SDS011;1545;51.728;8.796;2023-08-17T08:12:22;7.10;;;5.57;;
3068;SDS011;1545;51.728;8.796;2023-08-17T08:14:48;12.27;;;6.60;;
3068;SDS011;1545;51.728;8.796;2023-08-17T08:17:14;13.13;;;5.77;;
3068;SDS011;1545;51.728;8.796;2023-08-17T08:19:39;8.07;;;4.70;;
3068;SDS011;1545;51.728;8.796;2023-08-17T08:22:05;7.53;;;5.27;;
3068;SDS011;1545;51.728;8.796;2023-08-17T08:24:30;11.00;;;5.00;;
3068;SDS011;1545;51.728;8.796;2023-08-17T08:26:59;9.47;;;5.33;;
3068;SDS011;1545;51.728;8.796;2023-08-17T08:29:26;7.97;;;5.03;;
3068;SDS011;1545;51.728;8.796;2023-08-17T08:31:51;9.13;;;4.80;;
3068;SDS011;1545;51.728;8.796;2023-08-17T08:34:17;16.87;;;6.13;;
3068;SDS011;1545;51.728;8.796;2023-08-17T08:36:42;13.40;;;5.57;;
3068;SDS011;1545;51.728;8.796;2023-08-17T08:39:08;10.27;;;6.23;;
3068;SDS011;1545;51.728;8.796;2023-08-17T08:41:34;14.60;;;6.60;;
3068;SDS011;1545;51.728;8.796;2023-08-17T08:44:00;10.50;;;6.00;;
3068;SDS011;1545;51.728;8.796;2023-08-17T08:46:26;9.47;;;5.90;;
3068;SDS011;1545;51.728;8.796;2023-08-17T08:48:54;9.93;;;6.63;;
3068;SDS011;1545;51.728;8.796;2023-08-17T08:51:23;8.23;;;6.00;;
3068;SDS011;1545;51.728;8.796;2023-08-17T08:53:57;14.57;;;10.07;;
3068;SDS011;1545;51.728;8.796;2023-08-17T08:56:32;9.03;;;5.43;;
3068;SDS011;1545;51.728;8.796;2023-08-17T08:59:01;6.57;;;4.93;;
3068;SDS011;1545;51.728;8.796;2023-08-17T09:01:28;10.20;;;6.00;;
3068;SDS011;1545;51.728;8.796;2023-08-17T09:03:57;5.93;;;5.20;;
3068;SDS011;1545;51.728;8.796;2023-08-17T09:06:24;10.33;;;5.20;;
3068;SDS011;1545;51.728;8.796;2023-08-17T09:08:51;12.90;;;5.70;;
3068;SDS011;1545;51.728;8.796;2023-08-17T09:11:17;7.40;;;5.40;;
3068;SDS011;1545;51.728;8.796;2023-08-17T09:13:43;10.33;;;5.40;;
3068;SDS011;1545;51.728;8.796;2023-08-17T09:16:08;9.47;;;6.87;;
3068;SDS011;1545;51.728;8.796;2023-08-17T09:18:34;21.30;;;13.23;;
3068;SDS011;1545;51.728;8.796;2023-08-17T09:21:00;15.80;;;9.17;;
3068;SDS011;1545;51.728;8.796;2023-08-17T09:23:26;17.93;;;8.87;;
3068;SDS011;1545;51.728;8.796;2023-08-17T09:25:52;15.30;;;9.57;;
3068;SDS011;1545;51.728;8.796;2023-08-17T09:28:23;13.27;;;9.37;;
3068;SDS011;1545;51.728;8.796;2023-08-17T09:30:52;16.70;;;9.83;;
3068;SDS011;1545;51.728;8.796;2023-08-17T09:33:20;14.13;;;9.10;;
3068;SDS011;1545;51.728;8.796;2023-08-17T09:35:47;16.87;;;11.07;;
3068;SDS011;1545;51.728;8.796;2023-08-17T09:38:14;15.97;;;10.37;;
3068;SDS011;1545;51.728;8.796;2023-08-17T09:40:39;15.63;;;10.97;;
3068;SDS011;1545;51.728;8.796;2023-08-17T09:43:05;16.23;;;10.40;;
3068;SDS011;1545;51.728;8.796;2023-08-17T09:45:31;14.30;;;10.63;;
3068;SDS011;1545;51.728;8.796;2023-08-17T09:48:00;14.20;;;10.03;;
3068;SDS011;1545;51.728;8.796;2023-08-17T09:50:26;13.70;;;9.70;;
3068;SDS011;1545;51.728;8.796;2023-08-17T09:52:54;15.37;;;10.23;;
3068;SDS011;1545;51.728;8.796;2023-08-17T09:55:23;11.83;;;9.57;;
3068;SDS011;1545;51.728;8.796;2023-08-17T09:57:49;12.53;;;9.37;;
3068;SDS011;1545;51.728;8.796;2023-08-17T10:00:16;12.90;;;9.23;;
3068;SDS011;1545;51.728;8.796;2023-08-17T10:02:42;15.20;;;9.40;;
3068;SDS011;1545;51.728;8.796;2023-08-17T10:05:10;12.47;;;9.80;;
3068;SDS011;1545;51.728;8.796;2023-08-17T10:07:38;13.80;;;10.07;;
3068;SDS011;1545;51.728;8.796;2023-08-17T10:10:06;13.27;;;9.30;;
3068;SDS011;1545;51.728;8.796;2023-08-17T10:12:44;15.37;;;9.80;;
3068;SDS011;1545;51.728;8.796;2023-08-17T10:15:17;11.83;;;9.33;;
3068;SDS011;1545;51.728;8.796;2023-08-17T10:17:55;17.73;;;10.20;;
3068;SDS011;1545;51.728;8.796;2023-08-17T10:20:29;15.67;;;10.80;;
3068;SDS011;1545;51.728;8.796;2023-08-17T10:25:25;17.03;;;11.33;;
3068;SDS011;1545;51.728;8.796;2023-08-17T10:27:52;16.97;;;10.33;;
3068;SDS011;1545;51.728;8.796;2023-08-17T10:30:19;12.80;;;9.47;;
3068;SDS011;1545;51.728;8.796;2023-08-17T10:32:45;13.93;;;8.90;;
3068;SDS011;1545;51.728;8.796;2023-08-17T10:35:11;14.37;;;9.73;;
3068;SDS011;1545;51.728;8.796;2023-08-17T10:37:38;14.50;;;9.17;;
3068;SDS011;1545;51.728;8.796;2023-08-17T10:40:04;13.17;;;8.50;;
3068;SDS011;1545;51.728;8.796;2023-08-17T10:42:31;11.80;;;8.53;;
3068;SDS011;1545;51.728;8.796;2023-08-17T10:44:58;11.60;;;8.63;;
3068;SDS011;1545;51.728;8.796;2023-08-17T10:47:27;12.43;;;8.83;;
3068;SDS011;1545;51.728;8.796;2023-08-17T10:49:58;14.33;;;8.73;;
3068;SDS011;1545;51.728;8.796;2023-08-17T10:52:27;9.33;;;7.57;;
3068;SDS011;1545;51.728;8.796;2023-08-17T10:54:55;15.33;;;7.83;;
3068;SDS011;1545;51.728;8.796;2023-08-17T11:05:34;8.67;;;7.40;;
3068;SDS011;1545;51.728;8.796;2023-08-17T11:07:59;14.33;;;7.90;;
3068;SDS011;1545;51.728;8.796;2023-08-17T11:12:52;13.07;;;8.03;;
3068;SDS011;1545;51.728;8.796;2023-08-17T11:15:21;8.93;;;6.97;;
3068;SDS011;1545;51.728;8.796;2023-08-17T11:17:48;9.17;;;7.13;;
3068;SDS011;1545;51.728;8.796;2023-08-17T11:20:14;12.23;;;7.60;;
3068;SDS011;1545;51.728;8.796;2023-08-17T11:22:39;13.10;;;7.40;;
3068;SDS011;1545;51.728;8.796;2023-08-17T11:25:05;11.73;;;8.60;;
3068;SDS011;1545;51.728;8.796;2023-08-17T11:27:31;14.63;;;8.07;;
3068;SDS011;1545;51.728;8.796;2023-08-17T11:29:58;12.23;;;8.53;;
3068;SDS011;1545;51.728;8.796;2023-08-17T11:32:24;16.23;;;8.50;;
3068;SDS011;1545;51.728;8.796;2023-08-17T11:34:49;13.37;;;9.13;;
3068;SDS011;1545;51.728;8.796;2023-08-17T11:37:16;13.90;;;9.47;;
3068;SDS011;1545;51.728;8.796;2023-08-17T11:39:41;14.17;;;8.83;;
3068;SDS011;1545;51.728;8.796;2023-08-17T11:42:07;11.77;;;8.37;;
3068;SDS011;1545;51.728;8.796;2023-08-17T11:44:33;15.20;;;8.67;;
3068;SDS011;1545;51.728;8.796;2023-08-17T11:46:59;10.50;;;8.07;;
3068;SDS011;1545;51.728;8.796;2023-08-17T11:49:24;8.87;;;7.50;;
3068;SDS011;1545;51.728;8.796;2023-08-17T11:51:53;6.87;;;6.07;;
3068;SDS011;1545;51.728;8.796;2023-08-17T11:54:18;8.90;;;7.10;;
3068;SDS011;1545;51.728;8.796;2023-08-17T11:56:44;8.93;;;6.53;;
3068;SDS011;1545;51.728;8.796;2023-08-17T11:59:10;8.67;;;7.27;;
3068;SDS011;1545;51.728;8.796;2023-08-17T12:01:38;10.87;;;7.23;;
3068;SDS011;1545;51.728;8.796;2023-08-17T12:04:05;9.63;;;7.57;;
3068;SDS011;1545;51.728;8.796;2023-08-17T12:06:31;11.60;;;6.97;;
3068;SDS011;1545;51.728;8.796;2023-08-17T12:08:57;12.37;;;6.63;;
3068;SDS011;1545;51.728;8.796;2023-08-17T12:11:26;8.33;;;7.10;;
3068;SDS011;1545;51.728;8.796;2023-08-17T12:13:52;8.67;;;6.70;;
3068;SDS011;1545;51.728;8.796;2023-08-17T12:16:18;9.03;;;6.50;;
3068;SDS011;1545;51.728;8.796;2023-08-17T12:18:48;8.20;;;6.67;;
3068;SDS011;1545;51.728;8.796;2023-08-17T12:21:20;8.03;;;6.80;;
3068;SDS011;1545;51.728;8.796;2023-08-17T12:23:49;8.73;;;6.20;;
3068;SDS011;1545;51.728;8.796;2023-08-17T12:26:21;10.80;;;6.70;;
3068;SDS011;1545;51.728;8.796;2023-08-17T12:28:48;7.83;;;6.73;;
3068;SDS011;1545;51.728;8.796;2023-08-17T12:31:14;6.80;;;6.40;;
3068;SDS011;1545;51.728;8.796;2023-08-17T12:33:46;10.53;;;6.60;;
3068;SDS011;1545;51.728;8.796;2023-08-17T12:36:11;8.33;;;6.97;;
3068;SDS011;1545;51.728;8.796;2023-08-17T12:38:37;9.37;;;6.63;;
3068;SDS011;1545;51.728;8.796;2023-08-17T12:41:07;7.20;;;6.30;;
3068;SDS011;1545;51.728;8.796;2023-08-17T12:43:32;11.97;;;6.93;;
3068;SDS011;1545;51.728;8.796;2023-08-17T12:45:58;8.23;;;6.30;;
3068;SDS011;1545;51.728;8.796;2023-08-17T12:48:23;10.30;;;7.03;;
3068;SDS011;1545;51.728;8.796;2023-08-17T12:50:49;12.07;;;8.07;;
3068;SDS011;1545;51.728;8.796;2023-08-17T12:53:14;12.20;;;8.13;;
3068;SDS011;1545;51.728;8.796;2023-08-17T12:55:40;11.30;;;7.40;;
3068;SDS011;1545;51.728;8.796;2023-08-17T12:58:07;9.20;;;7.83;;
3068;SDS011;1545;51.728;8.796;2023-08-17T13:00:34;6.63;;;5.57;;
3068;SDS011;1545;51.728;8.796;2023-08-17T13:03:00;18.87;;;9.10;;
3068;SDS011;1545;51.728;8.796;2023-08-17T13:05:26;12.83;;;8.40;;
3068;SDS011;1545;51.728;8.796;2023-08-17T13:07:51;11.37;;;8.57;;
3068;SDS011;1545;51.728;8.796;2023-08-17T13:10:17;10.60;;;7.87;;
3068;SDS011;1545;51.728;8.796;2023-08-17T13:12:42;9.53;;;7.20;;
3068;SDS011;1545;51.728;8.796;2023-08-17T13:15:08;9.83;;;6.80;;
3068;SDS011;1545;51.728;8.796;2023-08-17T13:17:33;9.13;;;6.53;;
3068;SDS011;1545;51.728;8.796;2023-08-17T13:19:59;8.23;;;5.97;;
3068;SDS011;1545;51.728;8.796;2023-08-17T13:22:25;7.07;;;5.80;;
3068;SDS011;1545;51.728;8.796;2023-08-17T13:24:50;10.50;;;5.80;;
3068;SDS011;1545;51.728;8.796;2023-08-17T13:27:16;6.77;;;5.67;;
3068;SDS011;1545;51.728;8.796;2023-08-17T13:29:41;9.00;;;5.80;;
3068;SDS011;1545;51.728;8.796;2023-08-17T13:32:07;12.13;;;5.33;;
3068;SDS011;1545;51.728;8.796;2023-08-17T13:34:32;6.50;;;5.57;;
3068;SDS011;1545;51.728;8.796;2023-08-17T13:36:58;14.60;;;5.30;;
3068;SDS011;1545;51.728;8.796;2023-08-17T13:39:23;8.63;;;5.20;;
3068;SDS011;1545;51.728;8.796;2023-08-17T13:41:49;7.20;;;5.00;;
3068;SDS011;1545;51.728;8.796;2023-08-17T13:44:14;9.53;;;4.37;;
3068;SDS011;1545;51.728;8.796;2023-08-17T13:46:40;7.80;;;4.10;;
3068;SDS011;1545;51.728;8.796;2023-08-17T13:49:05;8.83;;;4.40;;
3068;SDS011;1545;51.728;8.796;2023-08-17T13:51:31;5.23;;;4.17;;
3068;SDS011;1545;51.728;8.796;2023-08-17T13:53:56;5.50;;;3.90;;
3068;SDS011;1545;51.728;8.796;2023-08-17T13:56:22;11.97;;;3.93;;
3068;SDS011;1545;51.728;8.796;2023-08-17T13:58:47;5.60;;;3.70;;
3068;SDS011;1545;51.728;8.796;2023-08-17T14:01:13;3.83;;;3.50;;
3068;SDS011;1545;51.728;8.796;2023-08-17T14:03:39;3.77;;;3.40;;
3068;SDS011;1545;51.728;8.796;2023-08-17T14:06:07;4.23;;;3.17;;
3068;SDS011;1545;51.728;8.796;2023-08-17T14:08:33;2.93;;;2.83;;
3068;SDS011;1545;51.728;8.796;2023-08-17T14:10:58;4.07;;;3.17;;
3068;SDS011;1545;51.728;8.796;2023-08-17T14:13:25;4.70;;;3.47;;
3068;SDS011;1545;51.728;8.796;2023-08-17T14:15:50;3.00;;;2.80;;
3068;SDS011;1545;51.728;8.796;2023-08-17T14:18:16;5.20;;;3.00;;
3068;SDS011;1545;51.728;8.796;2023-08-17T14:20:41;3.97;;;3.57;;
3068;SDS011;1545;51.728;8.796;2023-08-17T14:23:07;3.77;;;3.60;;
3068;SDS011;1545;51.728;8.796;2023-08-17T14:25:32;3.97;;;3.60;;
3068;SDS011;1545;51.728;8.796;2023-08-17T14:27:58;8.37;;;3.70;;
3068;SDS011;1545;51.728;8.796;2023-08-17T14:30:24;4.27;;;3.60;;
3068;SDS011;1545;51.728;8.796;2023-08-17T14:32:51;6.93;;;3.20;;
3068;SDS011;1545;51.728;8.796;2023-08-17T14:35:16;4.40;;;3.73;;
3068;SDS011;1545;51.728;8.796;2023-08-17T14:37:42;4.53;;;4.07;;
3068;SDS011;1545;51.728;8.796;2023-08-17T14:40:07;7.60;;;4.57;;
3068;SDS011;1545;51.728;8.796;2023-08-17T14:42:33;5.47;;;5.20;;
3068;SDS011;1545;51.728;8.796;2023-08-17T14:44:59;5.23;;;4.17;;
3068;SDS011;1545;51.728;8.796;2023-08-17T14:47:24;4.93;;;4.50;;
3068;SDS011;1545;51.728;8.796;2023-08-17T14:49:50;5.30;;;5.00;;
3068;SDS011;1545;51.728;8.796;2023-08-17T14:52:15;5.00;;;4.80;;
3068;SDS011;1545;51.728;8.796;2023-08-17T14:54:41;5.90;;;5.50;;
3068;SDS011;1545;51.728;8.796;2023-08-17T14:57:06;6.10;;;4.70;;
3068;SDS011;1545;51.728;8.796;2023-08-17T14:59:32;5.87;;;4.70;;
3068;SDS011;1545;51.728;8.796;2023-08-17T15:01:58;4.87;;;4.60;;
3068;SDS011;1545;51.728;8.796;2023-08-17T15:04:23;5.70;;;4.93;;
3068;SDS011;1545;51.728;8.796;2023-08-17T15:06:49;6.90;;;5.17;;
3068;SDS011;1545;51.728;8.796;2023-08-17T15:09:14;5.67;;;5.27;;